Old Mission, Michigan
Current Conditions -  °F | °C
As of 7:57 PM on Monday 24 Nov 2014 (Local Time) from KACB Reporting Station
Light Snow Light Snow  
Wind Chill: 30°   Ceiling: 800
Heat Index: 34°   Visibility: 2.5mi
Dew Point: 32°   Wind: 5mph
Humidity: 94%   Direction: 280°W
Pressure: 29.31"   Gusts: NA
Location:  44.96°N, 85.49°W
Report Text: KACB 250057Z AUTO 28004KT 2 1/2SM -SN BKN008 OVC015 01/00 A2931 RMK AO2 T00100001
Loading
Personal Weather Stations






























Interactive Weather Map New forecast layout! Learn more

10-Day Weather Forecast

Advertisements
Track Severe Weather on mobile